Eshbach, Pennsylvania
Current Conditions -  °F | °C
As of 10:54 PM on Tuesday 21 Oct 2014 (Local Time) from KPTW Reporting Station
Broken Clouds Broken Clouds  
Wind Chill: 55°   Ceiling: 11000
Heat Index: 55°   Visibility: 10mi
Dew Point: 50°   Wind: 5mph
Humidity: 83%   Direction: 20°NNE
Pressure: 29.91"   Gusts: NA
Location:  40.3927°N, 75.6313°W
Report Text: KPTW 220254Z AUTO 02004KT 10SM FEW048 SCT090 BKN110 13/10 A2991 RMK AO2 SLP127 T01280100 51015
Loading
Personal Weather Stations






























Interactive Weather Map
Tropical Storm Tracking
New forecast layout! Learn more

10-Day Weather Forecast

Advertisements
Track Severe Weather on mobile